sensor_id;sensor_type;location;lat;lon;timestamp;pressure;altitude;pressure_sealevel;temperature;humidity
57628;BME280;43451;49.060;10.616;2024-03-08T00:00:42;96754.78;;;0.80;100.00
57628;BME280;43451;49.060;10.616;2024-03-08T00:03:08;96750.91;;;0.89;100.00
57628;BME280;43451;49.060;10.616;2024-03-08T00:05:35;96753.47;;;0.86;100.00
57628;BME280;43451;49.060;10.616;2024-03-08T00:08:01;96746.41;;;0.81;100.00
57628;BME280;43451;49.060;10.616;2024-03-08T00:10:26;96746.81;;;0.71;100.00
57628;BME280;43451;49.060;10.616;2024-03-08T00:12:54;96749.22;;;0.64;100.00
57628;BME280;43451;49.060;10.616;2024-03-08T00:15:20;96744.19;;;0.62;100.00
57628;BME280;43451;49.060;10.616;2024-03-08T00:17:48;96746.88;;;0.62;100.00
57628;BME280;43451;49.060;10.616;2024-03-08T00:20:14;96739.19;;;0.61;100.00
57628;BME280;43451;49.060;10.616;2024-03-08T00:22:40;96751.94;;;0.55;100.00
57628;BME280;43451;49.060;10.616;2024-03-08T00:25:07;96741.44;;;0.50;100.00
57628;BME280;43451;49.060;10.616;2024-03-08T00:27:38;96741.72;;;0.57;100.00
57628;BME280;43451;49.060;10.616;2024-03-08T00:30:04;96741.13;;;0.52;100.00
57628;BME280;43451;49.060;10.616;2024-03-08T00:32:30;96739.28;;;0.43;100.00
57628;BME280;43451;49.060;10.616;2024-03-08T00:34:57;96729.75;;;0.34;100.00
57628;BME280;43451;49.060;10.616;2024-03-08T00:37:22;96739.53;;;0.30;100.00
57628;BME280;43451;49.060;10.616;2024-03-08T00:39:51;96745.44;;;0.14;100.00
57628;BME280;43451;49.060;10.616;2024-03-08T00:42:18;96737.66;;;0.01;100.00
57628;BME280;43451;49.060;10.616;2024-03-08T00:44:44;96734.91;;;-0.12;100.00
57628;BME280;43451;49.060;10.616;2024-03-08T00:47:10;96730.19;;;-0.15;100.00
57628;BME280;43451;49.060;10.616;2024-03-08T00:49:36;96732.28;;;-0.29;100.00
57628;BME280;43451;49.060;10.616;2024-03-08T00:52:04;96727.16;;;-0.34;100.00
57628;BME280;43451;49.060;10.616;2024-03-08T00:54:32;96729.34;;;-0.36;100.00
57628;BME280;43451;49.060;10.616;2024-03-08T00:56:58;96723.63;;;-0.26;100.00
57628;BME280;43451;49.060;10.616;2024-03-08T00:59:23;96716.31;;;-0.38;100.00
57628;BME280;43451;49.060;10.616;2024-03-08T01:01:49;96724.03;;;-0.45;100.00
57628;BME280;43451;49.060;10.616;2024-03-08T01:04:14;96712.22;;;-0.35;100.00
57628;BME280;43451;49.060;10.616;2024-03-08T01:06:40;96713.03;;;-0.43;100.00
57628;BME280;43451;49.060;10.616;2024-03-08T01:09:05;96725.91;;;-0.45;100.00
57628;BME280;43451;49.060;10.616;2024-03-08T01:11:34;96716.53;;;-0.52;100.00
57628;BME280;43451;49.060;10.616;2024-03-08T01:14:00;96708.66;;;-0.48;100.00
57628;BME280;43451;49.060;10.616;2024-03-08T01:16:25;96713.41;;;-0.54;100.00
57628;BME280;43451;49.060;10.616;2024-03-08T01:18:51;96709.94;;;-0.54;100.00
57628;BME280;43451;49.060;10.616;2024-03-08T01:21:16;96700.22;;;-0.59;100.00
57628;BME280;43451;49.060;10.616;2024-03-08T01:23:43;96702.22;;;-0.47;100.00
57628;BME280;43451;49.060;10.616;2024-03-08T01:26:09;96698.09;;;-0.36;100.00
57628;BME280;43451;49.060;10.616;2024-03-08T01:28:34;96704.50;;;-0.28;100.00
57628;BME280;43451;49.060;10.616;2024-03-08T01:31:00;96698.19;;;-0.24;100.00
57628;BME280;43451;49.060;10.616;2024-03-08T01:33:26;96689.94;;;-0.10;100.00
57628;BME280;43451;49.060;10.616;2024-03-08T01:35:52;96685.91;;;0.14;100.00
57628;BME280;43451;49.060;10.616;2024-03-08T01:38:19;96685.03;;;0.01;100.00
57628;BME280;43451;49.060;10.616;2024-03-08T01:40:46;96682.41;;;-0.08;100.00
57628;BME280;43451;49.060;10.616;2024-03-08T01:43:28;96671.34;;;-0.18;100.00
57628;BME280;43451;49.060;10.616;2024-03-08T01:45:57;96672.75;;;-0.21;100.00
57628;BME280;43451;49.060;10.616;2024-03-08T01:48:25;96671.84;;;-0.25;100.00
57628;BME280;43451;49.060;10.616;2024-03-08T01:50:51;96668.88;;;-0.32;100.00
57628;BME280;43451;49.060;10.616;2024-03-08T01:53:18;96670.97;;;-0.38;100.00
57628;BME280;43451;49.060;10.616;2024-03-08T01:55:45;96666.28;;;-0.50;100.00
57628;BME280;43451;49.060;10.616;2024-03-08T01:58:12;96656.13;;;-0.56;100.00
57628;BME280;43451;49.060;10.616;2024-03-08T02:00:45;96657.53;;;-0.59;100.00
57628;BME280;43451;49.060;10.616;2024-03-08T02:03:11;96654.41;;;-0.61;100.00
57628;BME280;43451;49.060;10.616;2024-03-08T02:05:40;96648.16;;;-0.65;100.00
57628;BME280;43451;49.060;10.616;2024-03-08T02:08:06;96637.97;;;-0.72;100.00
57628;BME280;43451;49.060;10.616;2024-03-08T02:10:33;96640.75;;;-0.59;100.00
57628;BME280;43451;49.060;10.616;2024-03-08T02:13:01;96631.50;;;-0.62;100.00
57628;BME280;43451;49.060;10.616;2024-03-08T02:15:53;96630.41;;;-0.61;100.00
57628;BME280;43451;49.060;10.616;2024-03-08T02:18:20;96632.16;;;-0.65;100.00
57628;BME280;43451;49.060;10.616;2024-03-08T02:20:56;96633.56;;;-0.67;100.00
57628;BME280;43451;49.060;10.616;2024-03-08T02:23:22;96628.38;;;-0.64;100.00
57628;BME280;43451;49.060;10.616;2024-03-08T02:25:49;96625.81;;;-0.52;100.00
57628;BME280;43451;49.060;10.616;2024-03-08T02:28:15;96617.03;;;-0.52;100.00
57628;BME280;43451;49.060;10.616;2024-03-08T02:30:40;96613.69;;;-0.40;100.00
57628;BME280;43451;49.060;10.616;2024-03-08T02:33:07;96612.28;;;-0.47;100.00
57628;BME280;43451;49.060;10.616;2024-03-08T02:35:33;96614.34;;;-0.52;100.00
57628;BME280;43451;49.060;10.616;2024-03-08T02:38:03;96611.81;;;-0.49;100.00
57628;BME280;43451;49.060;10.616;2024-03-08T02:40:29;96606.84;;;-0.59;100.00
57628;BME280;43451;49.060;10.616;2024-03-08T02:42:55;96607.97;;;-0.60;100.00
57628;BME280;43451;49.060;10.616;2024-03-08T02:45:20;96608.41;;;-0.58;100.00
57628;BME280;43451;49.060;10.616;2024-03-08T02:47:46;96597.31;;;-0.60;100.00
57628;BME280;43451;49.060;10.616;2024-03-08T02:50:11;96602.16;;;-0.62;100.00
57628;BME280;43451;49.060;10.616;2024-03-08T02:52:41;96600.41;;;-0.58;100.00
57628;BME280;43451;49.060;10.616;2024-03-08T02:55:07;96597.81;;;-0.66;100.00
57628;BME280;43451;49.060;10.616;2024-03-08T02:57:34;96606.16;;;-0.77;100.00
57628;BME280;43451;49.060;10.616;2024-03-08T02:59:59;96602.91;;;-0.82;100.00
57628;BME280;43451;49.060;10.616;2024-03-08T03:02:25;96604.13;;;-0.80;100.00
57628;BME280;43451;49.060;10.616;2024-03-08T03:04:52;96599.75;;;-0.84;100.00
57628;BME280;43451;49.060;10.616;2024-03-08T03:07:18;96599.63;;;-0.88;100.00
57628;BME280;43451;49.060;10.616;2024-03-08T03:09:44;96600.06;;;-0.86;100.00
57628;BME280;43451;49.060;10.616;2024-03-08T03:12:10;96589.75;;;-0.96;100.00
57628;BME280;43451;49.060;10.616;2024-03-08T03:14:36;96594.34;;;-1.05;100.00
57628;BME280;43451;49.060;10.616;2024-03-08T03:17:04;96591.84;;;-1.10;100.00
57628;BME280;43451;49.060;10.616;2024-03-08T03:19:30;96597.44;;;-0.95;100.00
57628;BME280;43451;49.060;10.616;2024-03-08T03:21:56;96596.38;;;-1.02;100.00
57628;BME280;43451;49.060;10.616;2024-03-08T03:24:21;96593.41;;;-1.09;100.00
57628;BME280;43451;49.060;10.616;2024-03-08T03:26:48;96596.72;;;-1.12;100.00
57628;BME280;43451;49.060;10.616;2024-03-08T03:29:15;96589.06;;;-1.14;100.00
57628;BME280;43451;49.060;10.616;2024-03-08T03:31:42;96581.00;;;-1.05;100.00
57628;BME280;43451;49.060;10.616;2024-03-08T03:34:12;96583.84;;;-1.10;100.00
57628;BME280;43451;49.060;10.616;2024-03-08T03:36:38;96586.69;;;-1.15;100.00
57628;BME280;43451;49.060;10.616;2024-03-08T03:39:10;96588.25;;;-1.14;100.00
57628;BME280;43451;49.060;10.616;2024-03-08T03:41:38;96578.72;;;-1.24;100.00
57628;BME280;43451;49.060;10.616;2024-03-08T03:44:05;96582.34;;;-1.29;100.00
57628;BME280;43451;49.060;10.616;2024-03-08T03:46:32;96576.53;;;-1.31;100.00
57628;BME280;43451;49.060;10.616;2024-03-08T03:48:58;96581.56;;;-1.38;100.00
57628;BME280;43451;49.060;10.616;2024-03-08T03:51:24;96582.53;;;-1.43;100.00
57628;BME280;43451;49.060;10.616;2024-03-08T03:53:50;96583.00;;;-1.41;100.00
57628;BME280;43451;49.060;10.616;2024-03-08T03:56:15;96577.84;;;-1.46;100.00
57628;BME280;43451;49.060;10.616;2024-03-08T03:58:41;96575.19;;;-1.46;100.00
57628;BME280;43451;49.060;10.616;2024-03-08T04:01:08;96569.03;;;-1.46;100.00
57628;BME280;43451;49.060;10.616;2024-03-08T04:03:35;96571.25;;;-1.48;100.00
57628;BME280;43451;49.060;10.616;2024-03-08T04:06:00;96572.53;;;-1.46;100.00
57628;BME280;43451;49.060;10.616;2024-03-08T04:08:27;96567.81;;;-1.49;100.00
57628;BME280;43451;49.060;10.616;2024-03-08T04:10:52;96571.56;;;-1.50;100.00
57628;BME280;43451;49.060;10.616;2024-03-08T04:13:18;96570.50;;;-1.49;100.00
57628;BME280;43451;49.060;10.616;2024-03-08T04:15:45;96569.84;;;-1.46;100.00
57628;BME280;43451;49.060;10.616;2024-03-08T04:20:41;96552.06;;;-1.24;100.00
57628;BME280;43451;49.060;10.616;2024-03-08T04:23:07;96551.16;;;-1.28;100.00
57628;BME280;43451;49.060;10.616;2024-03-08T04:25:32;96548.63;;;-1.33;100.00
57628;BME280;43451;49.060;10.616;2024-03-08T04:27:58;96549.13;;;-1.31;100.00
57628;BME280;43451;49.060;10.616;2024-03-08T04:30:24;96546.94;;;-1.38;100.00
57628;BME280;43451;49.060;10.616;2024-03-08T04:32:49;96544.78;;;-1.45;100.00
57628;BME280;43451;49.060;10.616;2024-03-08T04:35:15;96542.09;;;-1.45;100.00
57628;BME280;43451;49.060;10.616;2024-03-08T04:37:41;96549.34;;;-1.54;100.00
57628;BME280;43451;49.060;10.616;2024-03-08T04:40:07;96542.25;;;-1.50;100.00
57628;BME280;43451;49.060;10.616;2024-03-08T04:42:33;96549.81;;;-1.60;100.00
57628;BME280;43451;49.060;10.616;2024-03-08T04:44:58;96547.78;;;-1.55;100.00
57628;BME280;43451;49.060;10.616;2024-03-08T04:47:24;96553.88;;;-1.63;100.00
57628;BME280;43451;49.060;10.616;2024-03-08T04:49:50;96545.13;;;-1.55;100.00
57628;BME280;43451;49.060;10.616;2024-03-08T04:52:16;96538.03;;;-1.51;100.00
57628;BME280;43451;49.060;10.616;2024-03-08T04:54:42;96543.38;;;-1.51;100.00
57628;BME280;43451;49.060;10.616;2024-03-08T04:57:08;96542.59;;;-1.51;100.00
57628;BME280;43451;49.060;10.616;2024-03-08T04:59:33;96544.63;;;-1.48;100.00
57628;BME280;43451;49.060;10.616;2024-03-08T05:01:59;96538.34;;;-1.44;100.00
57628;BME280;43451;49.060;10.616;2024-03-08T05:04:24;96541.75;;;-1.26;100.00
57628;BME280;43451;49.060;10.616;2024-03-08T05:06:50;96540.44;;;-1.11;100.00
57628;BME280;43451;49.060;10.616;2024-03-08T05:09:16;96532.53;;;-0.99;100.00
57628;BME280;43451;49.060;10.616;2024-03-08T05:11:43;96533.13;;;-0.93;100.00
57628;BME280;43451;49.060;10.616;2024-03-08T05:14:10;96529.06;;;-0.99;100.00
57628;BME280;43451;49.060;10.616;2024-03-08T05:16:35;96529.19;;;-0.87;100.00
57628;BME280;43451;49.060;10.616;2024-03-08T05:19:02;96525.41;;;-0.86;100.00
57628;BME280;43451;49.060;10.616;2024-03-08T05:21:28;96523.72;;;-0.90;100.00
57628;BME280;43451;49.060;10.616;2024-03-08T05:23:56;96522.56;;;-0.81;100.00
57628;BME280;43451;49.060;10.616;2024-03-08T05:26:22;96517.00;;;-0.97;100.00
57628;BME280;43451;49.060;10.616;2024-03-08T05:28:48;96522.56;;;-1.10;100.00
57628;BME280;43451;49.060;10.616;2024-03-08T05:31:21;96514.66;;;-0.98;100.00
57628;BME280;43451;49.060;10.616;2024-03-08T05:33:52;96514.97;;;-1.00;100.00
57628;BME280;43451;49.060;10.616;2024-03-08T05:36:19;96515.50;;;-1.15;100.00
57628;BME280;43451;49.060;10.616;2024-03-08T05:38:44;96509.72;;;-1.17;100.00
57628;BME280;43451;49.060;10.616;2024-03-08T05:41:10;96502.81;;;-1.18;100.00
57628;BME280;43451;49.060;10.616;2024-03-08T05:43:40;96513.84;;;-1.28;100.00
57628;BME280;43451;49.060;10.616;2024-03-08T05:46:06;96510.25;;;-1.32;100.00
57628;BME280;43451;49.060;10.616;2024-03-08T05:48:32;96511.66;;;-1.35;100.00
57628;BME280;43451;49.060;10.616;2024-03-08T05:50:58;96500.25;;;-1.35;100.00
57628;BME280;43451;49.060;10.616;2024-03-08T05:53:23;96514.63;;;-1.36;100.00
57628;BME280;43451;49.060;10.616;2024-03-08T05:55:49;96500.84;;;-1.30;100.00
57628;BME280;43451;49.060;10.616;2024-03-08T05:58:15;96509.91;;;-1.22;100.00
57628;BME280;43451;49.060;10.616;2024-03-08T06:00:40;96506.97;;;-1.29;100.00
57628;BME280;43451;49.060;10.616;2024-03-08T06:03:06;96507.41;;;-1.27;100.00
57628;BME280;43451;49.060;10.616;2024-03-08T06:05:32;96512.72;;;-1.27;100.00
57628;BME280;43451;49.060;10.616;2024-03-08T06:07:57;96510.53;;;-1.25;100.00
57628;BME280;43451;49.060;10.616;2024-03-08T06:10:23;96506.75;;;-1.24;100.00
57628;BME280;43451;49.060;10.616;2024-03-08T06:12:48;96505.69;;;-1.23;100.00
57628;BME280;43451;49.060;10.616;2024-03-08T06:15:14;96511.59;;;-1.18;100.00
57628;BME280;43451;49.060;10.616;2024-03-08T06:17:43;96501.53;;;-1.12;100.00
57628;BME280;43451;49.060;10.616;2024-03-08T06:20:09;96506.19;;;-1.00;100.00
57628;BME280;43451;49.060;10.616;2024-03-08T06:22:38;96506.78;;;-0.65;100.00
57628;BME280;43451;49.060;10.616;2024-03-08T06:25:10;96501.63;;;-0.70;100.00
57628;BME280;43451;49.060;10.616;2024-03-08T06:27:41;96492.06;;;-0.71;100.00
57628;BME280;43451;49.060;10.616;2024-03-08T06:30:08;96495.59;;;-0.79;100.00
57628;BME280;43451;49.060;10.616;2024-03-08T06:32:35;96494.00;;;-0.80;100.00
57628;BME280;43451;49.060;10.616;2024-03-08T06:35:05;96505.78;;;-0.81;100.00
57628;BME280;43451;49.060;10.616;2024-03-08T06:37:35;96503.44;;;-0.83;100.00
57628;BME280;43451;49.060;10.616;2024-03-08T06:40:01;96494.34;;;-0.82;100.00
57628;BME280;43451;49.060;10.616;2024-03-08T06:42:30;96497.13;;;-0.78;100.00
57628;BME280;43451;49.060;10.616;2024-03-08T06:45:00;96489.56;;;-0.76;100.00
57628;BME280;43451;49.060;10.616;2024-03-08T06:47:30;96494.09;;;-0.68;100.00
57628;BME280;43451;49.060;10.616;2024-03-08T06:49:56;96493.19;;;-0.51;100.00
57628;BME280;43451;49.060;10.616;2024-03-08T06:52:21;96498.38;;;-0.55;100.00
57628;BME280;43451;49.060;10.616;2024-03-08T06:54:47;96497.75;;;-0.52;100.00
57628;BME280;43451;49.060;10.616;2024-03-08T06:57:13;96495.78;;;-0.42;100.00
57628;BME280;43451;49.060;10.616;2024-03-08T06:59:39;96495.78;;;-0.42;100.00
57628;BME280;43451;49.060;10.616;2024-03-08T07:02:05;96489.94;;;-0.36;100.00
57628;BME280;43451;49.060;10.616;2024-03-08T07:04:34;96496.19;;;-0.32;100.00
57628;BME280;43451;49.060;10.616;2024-03-08T07:07:06;96487.03;;;-0.22;100.00
57628;BME280;43451;49.060;10.616;2024-03-08T07:09:38;96481.72;;;-0.10;100.00
57628;BME280;43451;49.060;10.616;2024-03-08T07:12:03;96478.19;;;-0.02;100.00
57628;BME280;43451;49.060;10.616;2024-03-08T07:14:30;96485.59;;;0.14;100.00
57628;BME280;43451;49.060;10.616;2024-03-08T07:16:59;96481.38;;;0.25;100.00
57628;BME280;43451;49.060;10.616;2024-03-08T07:19:24;96485.66;;;0.38;100.00
57628;BME280;43451;49.060;10.616;2024-03-08T07:21:50;96486.09;;;0.40;100.00
57628;BME280;43451;49.060;10.616;2024-03-08T07:24:15;96486.13;;;0.53;100.00
57628;BME280;43451;49.060;10.616;2024-03-08T07:26:43;96486.34;;;0.60;100.00
57628;BME280;43451;49.060;10.616;2024-03-08T07:29:09;96480.69;;;0.61;100.00
57628;BME280;43451;49.060;10.616;2024-03-08T07:31:35;96490.38;;;0.66;100.00
57628;BME280;43451;49.060;10.616;2024-03-08T07:34:16;96475.34;;;0.74;100.00
57628;BME280;43451;49.060;10.616;2024-03-08T07:36:42;96473.47;;;0.86;100.00
57628;BME280;43451;49.060;10.616;2024-03-08T07:39:07;96479.03;;;0.93;100.00
57628;BME280;43451;49.060;10.616;2024-03-08T07:41:40;96470.00;;;0.98;100.00
57628;BME280;43451;49.060;10.616;2024-03-08T07:44:08;96466.44;;;1.06;100.00
57628;BME280;43451;49.060;10.616;2024-03-08T07:46:34;96458.97;;;1.12;100.00
57628;BME280;43451;49.060;10.616;2024-03-08T07:49:00;96460.97;;;1.15;100.00
57628;BME280;43451;49.060;10.616;2024-03-08T07:51:26;96466.53;;;1.22;100.00
57628;BME280;43451;49.060;10.616;2024-03-08T07:53:51;96460.41;;;1.34;100.00
57628;BME280;43451;49.060;10.616;2024-03-08T07:56:17;96456.38;;;1.40;100.00
57628;BME280;43451;49.060;10.616;2024-03-08T07:58:44;96455.63;;;1.55;100.00
57628;BME280;43451;49.060;10.616;2024-03-08T08:01:19;96456.50;;;1.72;100.00
57628;BME280;43451;49.060;10.616;2024-03-08T08:03:45;96446.31;;;1.77;100.00
57628;BME280;43451;49.060;10.616;2024-03-08T08:06:11;96447.31;;;1.85;100.00
57628;BME280;43451;49.060;10.616;2024-03-08T08:08:44;96450.13;;;2.04;100.00
57628;BME280;43451;49.060;10.616;2024-03-08T08:11:10;96435.50;;;2.02;100.00
57628;BME280;43451;49.060;10.616;2024-03-08T08:13:37;96436.56;;;2.13;100.00
57628;BME280;43451;49.060;10.616;2024-03-08T08:16:03;96428.09;;;2.11;100.00
57628;BME280;43451;49.060;10.616;2024-03-08T08:18:29;96430.44;;;2.13;100.00
57628;BME280;43451;49.060;10.616;2024-03-08T08:20:55;96434.13;;;2.08;100.00
57628;BME280;43451;49.060;10.616;2024-03-08T08:23:21;96426.72;;;2.17;100.00
57628;BME280;43451;49.060;10.616;2024-03-08T08:25:47;96426.44;;;2.06;100.00
57628;BME280;43451;49.060;10.616;2024-03-08T08:28:19;96426.47;;;2.22;100.00
57628;BME280;43451;49.060;10.616;2024-03-08T08:30:45;96426.28;;;2.15;100.00
57628;BME280;43451;49.060;10.616;2024-03-08T08:33:10;96417.75;;;2.25;100.00
57628;BME280;43451;49.060;10.616;2024-03-08T08:35:37;96418.16;;;2.27;100.00
57628;BME280;43451;49.060;10.616;2024-03-08T08:38:04;96414.28;;;2.41;100.00
57628;BME280;43451;49.060;10.616;2024-03-08T08:40:29;96403.13;;;2.39;100.00
57628;BME280;43451;49.060;10.616;2024-03-08T08:42:59;96414.28;;;2.41;100.00
57628;BME280;43451;49.060;10.616;2024-03-08T08:45:25;96400.78;;;2.53;100.00
57628;BME280;43451;49.060;10.616;2024-03-08T08:47:52;96402.34;;;2.70;100.00
57628;BME280;43451;49.060;10.616;2024-03-08T08:50:17;96397.66;;;2.83;100.00
57628;BME280;43451;49.060;10.616;2024-03-08T08:52:49;96393.00;;;2.79;100.00
57628;BME280;43451;49.060;10.616;2024-03-08T08:55:14;96394.84;;;2.95;100.00
57628;BME280;43451;49.060;10.616;2024-03-08T08:57:41;96384.44;;;3.09;100.00
57628;BME280;43451;49.060;10.616;2024-03-08T09:00:07;96390.03;;;3.20;100.00
57628;BME280;43451;49.060;10.616;2024-03-08T09:02:35;96382.50;;;3.45;100.00
57628;BME280;43451;49.060;10.616;2024-03-08T09:05:00;96373.75;;;3.48;100.00
57628;BME280;43451;49.060;10.616;2024-03-08T09:07:26;96377.00;;;3.57;100.00
57628;BME280;43451;49.060;10.616;2024-03-08T09:09:53;96369.06;;;3.64;100.00
57628;BME280;43451;49.060;10.616;2024-03-08T09:12:23;96372.13;;;3.63;100.00
57628;BME280;43451;49.060;10.616;2024-03-08T09:14:48;96372.03;;;3.79;100.00
57628;BME280;43451;49.060;10.616;2024-03-08T09:17:14;96374.63;;;3.94;100.00
57628;BME280;43451;49.060;10.616;2024-03-08T09:19:43;96367.78;;;3.97;100.00
57628;BME280;43451;49.060;10.616;2024-03-08T09:22:09;96369.44;;;4.05;100.00
57628;BME280;43451;49.060;10.616;2024-03-08T09:24:36;96369.59;;;4.12;100.00
57628;BME280;43451;49.060;10.616;2024-03-08T09:27:02;96364.66;;;4.18;100.00
57628;BME280;43451;49.060;10.616;2024-03-08T09:29:28;96361.31;;;4.25;100.00
57628;BME280;43451;49.060;10.616;2024-03-08T09:31:54;96360.59;;;4.28;100.00
57628;BME280;43451;49.060;10.616;2024-03-08T09:34:19;96357.69;;;4.36;100.00
57628;BME280;43451;49.060;10.616;2024-03-08T09:36:45;96356.91;;;4.36;100.00
57628;BME280;43451;49.060;10.616;2024-03-08T09:39:11;96357.09;;;4.24;100.00
57628;BME280;43451;49.060;10.616;2024-03-08T09:41:45;96348.91;;;4.16;100.00
57628;BME280;43451;49.060;10.616;2024-03-08T09:44:14;96354.88;;;4.29;100.00
57628;BME280;43451;49.060;10.616;2024-03-08T09:46:40;96334.56;;;4.32;100.00
57628;BME280;43451;49.060;10.616;2024-03-08T09:49:06;96335.59;;;4.50;100.00
57628;BME280;43451;49.060;10.616;2024-03-08T09:51:34;96328.44;;;4.58;100.00
57628;BME280;43451;49.060;10.616;2024-03-08T09:54:03;96322.16;;;4.77;100.00
57628;BME280;43451;49.060;10.616;2024-03-08T09:56:32;96331.88;;;4.85;100.00
57628;BME280;43451;49.060;10.616;2024-03-08T09:59:01;96322.78;;;4.93;100.00
57628;BME280;43451;49.060;10.616;2024-03-08T10:01:29;96330.84;;;4.93;100.00
57628;BME280;43451;49.060;10.616;2024-03-08T10:03:57;96318.81;;;5.13;100.00
57628;BME280;43451;49.060;10.616;2024-03-08T10:06:23;96326.06;;;5.09;100.00
57628;BME280;43451;49.060;10.616;2024-03-08T10:08:50;96327.94;;;5.05;100.00
57628;BME280;43451;49.060;10.616;2024-03-08T10:11:19;96320.38;;;5.15;100.00
57628;BME280;43451;49.060;10.616;2024-03-08T10:13:46;96324.38;;;5.28;100.00
57628;BME280;43451;49.060;10.616;2024-03-08T10:16:13;96317.19;;;5.39;100.00
57628;BME280;43451;49.060;10.616;2024-03-08T10:18:38;96315.06;;;5.52;100.00
57628;BME280;43451;49.060;10.616;2024-03-08T10:21:08;96310.28;;;5.42;99.68
57628;BME280;43451;49.060;10.616;2024-03-08T10:23:36;96308.88;;;5.51;100.00
57628;BME280;43451;49.060;10.616;2024-03-08T10:26:12;96310.50;;;5.59;100.00
57628;BME280;43451;49.060;10.616;2024-03-08T10:28:45;96315.22;;;5.70;98.70
57628;BME280;43451;49.060;10.616;2024-03-08T10:31:13;96308.78;;;5.78;100.00
57628;BME280;43451;49.060;10.616;2024-03-08T10:33:40;96312.34;;;5.89;99.58
57628;BME280;43451;49.060;10.616;2024-03-08T10:36:07;96312.03;;;5.94;96.05
57628;BME280;43451;49.060;10.616;2024-03-08T10:38:36;96308.25;;;6.02;99.95
57628;BME280;43451;49.060;10.616;2024-03-08T10:41:03;96309.09;;;6.10;96.05
57628;BME280;43451;49.060;10.616;2024-03-08T10:43:34;96299.84;;;6.11;93.89
57628;BME280;43451;49.060;10.616;2024-03-08T10:48:44;96288.59;;;6.50;96.27
57628;BME280;43451;49.060;10.616;2024-03-08T10:51:11;96285.53;;;6.51;93.38
57628;BME280;43451;49.060;10.616;2024-03-08T10:53:38;96285.50;;;6.48;94.16
57628;BME280;43451;49.060;10.616;2024-03-08T10:56:07;96286.41;;;6.66;93.02
57628;BME280;43451;49.060;10.616;2024-03-08T10:58:36;96291.81;;;6.66;92.96
57628;BME280;43451;49.060;10.616;2024-03-08T11:01:02;96275.31;;;6.82;93.88
57628;BME280;43451;49.060;10.616;2024-03-08T11:06:19;96268.81;;;6.97;90.71
57628;BME280;43451;49.060;10.616;2024-03-08T11:08:48;96270.38;;;6.95;86.50
57628;BME280;43451;49.060;10.616;2024-03-08T11:11:26;96274.28;;;7.12;89.91
57628;BME280;43451;49.060;10.616;2024-03-08T11:13:53;96266.53;;;7.03;84.06
57628;BME280;43451;49.060;10.616;2024-03-08T11:18:53;96259.28;;;7.18;84.82
57628;BME280;43451;49.060;10.616;2024-03-08T11:21:19;96265.88;;;7.35;81.77
57628;BME280;43451;49.060;10.616;2024-03-08T11:24:01;96252.38;;;7.42;83.11
57628;BME280;43451;49.060;10.616;2024-03-08T11:26:29;96249.72;;;7.49;79.33
57628;BME280;43451;49.060;10.616;2024-03-08T11:32:17;96238.53;;;7.51;78.76
57628;BME280;43451;49.060;10.616;2024-03-08T11:34:48;96235.47;;;7.59;82.20
57628;BME280;43451;49.060;10.616;2024-03-08T11:37:18;96235.09;;;7.82;80.42
57628;BME280;43451;49.060;10.616;2024-03-08T11:39:52;96229.69;;;7.82;77.50
57628;BME280;43451;49.060;10.616;2024-03-08T11:42:19;96219.66;;;7.94;77.59
57628;BME280;43451;49.060;10.616;2024-03-08T11:44:45;96219.66;;;8.11;76.35
57628;BME280;43451;49.060;10.616;2024-03-08T11:47:11;96214.22;;;8.11;78.18
57628;BME280;43451;49.060;10.616;2024-03-08T11:49:40;96210.38;;;8.09;79.83
57628;BME280;43451;49.060;10.616;2024-03-08T11:52:16;96221.97;;;8.31;80.80
57628;BME280;43451;49.060;10.616;2024-03-08T11:54:52;96216.91;;;8.36;81.14
57628;BME280;43451;49.060;10.616;2024-03-08T11:57:23;96212.66;;;8.57;83.45
57628;BME280;43451;49.060;10.616;2024-03-08T11:59:55;96198.69;;;8.73;78.41
57628;BME280;43451;49.060;10.616;2024-03-08T12:02:31;96200.25;;;8.74;75.38
57628;BME280;43451;49.060;10.616;2024-03-08T12:04:58;96196.31;;;8.89;75.90
57628;BME280;43451;49.060;10.616;2024-03-08T12:07:25;96185.78;;;9.09;77.48
57628;BME280;43451;49.060;10.616;2024-03-08T12:12:47;96184.63;;;9.06;68.60
57628;BME280;43451;49.060;10.616;2024-03-08T12:15:14;96176.91;;;9.05;67.68
57628;BME280;43451;49.060;10.616;2024-03-08T12:17:40;96176.16;;;9.01;68.38
57628;BME280;43451;49.060;10.616;2024-03-08T12:20:25;96173.88;;;8.89;66.99
57628;BME280;43451;49.060;10.616;2024-03-08T12:22:52;96165.69;;;9.03;65.87
57628;BME280;43451;49.060;10.616;2024-03-08T12:25:19;96161.78;;;9.11;70.03
57628;BME280;43451;49.060;10.616;2024-03-08T12:27:45;96152.47;;;9.12;64.59
57628;BME280;43451;49.060;10.616;2024-03-08T12:30:23;96158.69;;;9.09;65.38
57628;BME280;43451;49.060;10.616;2024-03-08T12:32:59;96154.34;;;9.22;69.02
57628;BME280;43451;49.060;10.616;2024-03-08T12:35:27;96155.78;;;9.41;69.13
57628;BME280;43451;49.060;10.616;2024-03-08T12:37:54;96141.75;;;9.53;62.33
57628;BME280;43451;49.060;10.616;2024-03-08T12:40:27;96142.13;;;9.56;64.21
57628;BME280;43451;49.060;10.616;2024-03-08T12:42:55;96138.47;;;9.80;64.42
57628;BME280;43451;49.060;10.616;2024-03-08T12:45:22;96132.19;;;9.90;61.19
57628;BME280;43451;49.060;10.616;2024-03-08T12:47:50;96135.28;;;9.89;61.05
57628;BME280;43451;49.060;10.616;2024-03-08T12:50:16;96128.94;;;10.06;64.12
57628;BME280;43451;49.060;10.616;2024-03-08T12:52:42;96124.97;;;10.14;60.35
57628;BME280;43451;49.060;10.616;2024-03-08T12:55:08;96113.72;;;10.16;59.40
57628;BME280;43451;49.060;10.616;2024-03-08T12:57:35;96124.56;;;10.16;61.21
57628;BME280;43451;49.060;10.616;2024-03-08T13:00:04;96104.97;;;10.39;60.43
57628;BME280;43451;49.060;10.616;2024-03-08T13:02:30;96110.44;;;10.35;58.43
57628;BME280;43451;49.060;10.616;2024-03-08T13:04:58;96098.81;;;10.35;57.58